AZU4861 SBEG-SBBE
Flight info
| Callsign | AZU4861 |
|---|---|
| Flight time | 1h 48m |
| Altitude | 37000 |
| Route | XOLOK UZ81 DADUD DCT PAKUT |
| Aircraft | A20N/M-SDE2E3FGHIRWXY/LB1 |
Departure
| Time | 2026-04-28 05:13 |
|---|---|
| Airport | Eduardo Gomes International Airport (SBEG) |
Arrival
| Time | 2026-04-28 07:02 |
|---|---|
| Airport | Val de Cans/Júlio Cezar Ribeiro International Airport (SBBE) |
| Time | Latitude | Longitude | Altitude | Speed | Heading |
|---|---|---|---|---|---|
| 2026-04-28 04:43 | -3.03278 | -60.04639 | 304 ft | 0 kts | 1° |
| 2026-04-28 05:04 | -3.03282 | -60.04640 | 302 ft | 3 kts | 1° |
| 2026-04-28 05:04 | -3.03300 | -60.04640 | 303 ft | 3 kts | 1° |
| 2026-04-28 05:05 | -3.03318 | -60.04640 | 303 ft | 3 kts | 1° |
| 2026-04-28 05:05 | -3.03336 | -60.04640 | 302 ft | 2 kts | 335° |
| 2026-04-28 05:05 | -3.03346 | -60.04628 | 302 ft | 2 kts | 266° |
| 2026-04-28 05:05 | -3.03347 | -60.04628 | 302 ft | 0 kts | 262° |
| 2026-04-28 05:07 | -3.03347 | -60.04629 | 302 ft | 2 kts | 262° |
| 2026-04-28 05:07 | -3.03352 | -60.04688 | 302 ft | 14 kts | 266° |
| 2026-04-28 05:08 | -3.03382 | -60.04781 | 303 ft | 14 kts | 241° |
| 2026-04-28 05:08 | -3.03445 | -60.04853 | 303 ft | 14 kts | 219° |
| 2026-04-28 05:08 | -3.03521 | -60.04917 | 302 ft | 16 kts | 226° |
| 2026-04-28 05:08 | -3.03584 | -60.05024 | 304 ft | 19 kts | 251° |
| 2026-04-28 05:09 | -3.03618 | -60.05152 | 300 ft | 19 kts | 255° |
| 2026-04-28 05:09 | -3.03654 | -60.05280 | 303 ft | 19 kts | 255° |
| 2026-04-28 05:09 | -3.03680 | -60.05410 | 302 ft | 19 kts | 261° |
| 2026-04-28 05:09 | -3.03690 | -60.05544 | 300 ft | 19 kts | 270° |
| 2026-04-28 05:10 | -3.03690 | -60.05679 | 300 ft | 20 kts | 269° |
| 2026-04-28 05:10 | -3.03691 | -60.05815 | 300 ft | 20 kts | 269° |
| 2026-04-28 05:10 | -3.03692 | -60.05955 | 298 ft | 20 kts | 269° |
| 2026-04-28 05:10 | -3.03692 | -60.06084 | 300 ft | 17 kts | 267° |
| 2026-04-28 05:11 | -3.03736 | -60.06163 | 299 ft | 9 kts | 210° |
| 2026-04-28 05:11 | -3.03747 | -60.06168 | 296 ft | 0 kts | 200° |
| 2026-04-28 05:11 | -3.03750 | -60.06169 | 296 ft | 4 kts | 200° |
| 2026-04-28 05:12 | -3.03827 | -60.06171 | 297 ft | 14 kts | 161° |
| 2026-04-28 05:12 | -3.03855 | -60.06122 | 297 ft | 0 kts | 92° |
| 2026-04-28 05:12 | -3.03856 | -60.06086 | 297 ft | 25 kts | 90° |
| 2026-04-28 05:13 | -3.03858 | -60.05661 | 297 ft | 95 kts | 90° |
| 2026-04-28 05:13 | -3.03861 | -60.04798 | 311 ft | 148 kts | 90° |
| 2026-04-28 05:13 | -3.03854 | -60.03709 | 652 ft | 162 kts | 88° |
| 2026-04-28 05:13 | -3.03869 | -60.02604 | 1358 ft | 152 kts | 90° |
| 2026-04-28 05:14 | -3.03876 | -60.01529 | 1879 ft | 163 kts | 89° |
| 2026-04-28 05:14 | -3.03884 | -60.00272 | 2177 ft | 198 kts | 90° |
| 2026-04-28 05:14 | -3.03927 | -59.98762 | 2404 ft | 236 kts | 91° |
| 2026-04-28 05:14 | -3.03989 | -59.97050 | 2986 ft | 254 kts | 91° |
| 2026-04-28 05:15 | -3.04056 | -59.95264 | 3806 ft | 260 kts | 91° |
| 2026-04-28 05:15 | -3.04121 | -59.93444 | 4706 ft | 263 kts | 90° |
| 2026-04-28 05:15 | -3.04184 | -59.91610 | 5570 ft | 265 kts | 91° |
| 2026-04-28 05:15 | -3.04247 | -59.89757 | 6440 ft | 268 kts | 90° |
| 2026-04-28 05:16 | -3.04309 | -59.87883 | 7229 ft | 272 kts | 91° |
| 2026-04-28 05:16 | -3.04372 | -59.85983 | 8055 ft | 274 kts | 91° |
| 2026-04-28 05:16 | -3.04435 | -59.84067 | 8910 ft | 277 kts | 91° |
| 2026-04-28 05:17 | -3.04563 | -59.80182 | 10340 ft | 292 kts | 91° |
| 2026-04-28 05:17 | -3.04632 | -59.78080 | 10644 ft | 312 kts | 91° |
| 2026-04-28 05:17 | -3.04704 | -59.75868 | 11136 ft | 323 kts | 91° |
| 2026-04-28 05:17 | -3.04779 | -59.73605 | 11785 ft | 328 kts | 91° |
| 2026-04-28 05:18 | -3.04856 | -59.71311 | 12491 ft | 332 kts | 91° |
| 2026-04-28 05:18 | -3.04938 | -59.68992 | 13195 ft | 336 kts | 91° |
| 2026-04-28 05:18 | -3.05020 | -59.66644 | 13889 ft | 340 kts | 92° |
| 2026-04-28 05:18 | -3.05104 | -59.64268 | 14532 ft | 344 kts | 92° |
| 2026-04-28 05:19 | -3.05189 | -59.61865 | 15191 ft | 348 kts | 92° |
| 2026-04-28 05:19 | -3.05274 | -59.59433 | 15849 ft | 352 kts | 92° |
| 2026-04-28 05:19 | -3.05361 | -59.56974 | 16503 ft | 356 kts | 92° |
| 2026-04-28 05:19 | -3.05448 | -59.54484 | 17156 ft | 360 kts | 92° |
| 2026-04-28 05:20 | -3.05536 | -59.51972 | 17793 ft | 363 kts | 92° |
| 2026-04-28 05:20 | -3.05625 | -59.49432 | 18388 ft | 367 kts | 92° |
| 2026-04-28 05:20 | -3.05715 | -59.46870 | 18927 ft | 370 kts | 92° |
| 2026-04-28 05:20 | -3.05805 | -59.44284 | 19481 ft | 373 kts | 92° |
| 2026-04-28 05:21 | -3.05896 | -59.41683 | 20031 ft | 375 kts | 92° |
| 2026-04-28 05:21 | -3.05988 | -59.39063 | 20579 ft | 378 kts | 92° |
| 2026-04-28 05:21 | -3.06080 | -59.36426 | 21126 ft | 381 kts | 92° |
| 2026-04-28 05:21 | -3.06172 | -59.33771 | 21678 ft | 384 kts | 92° |
| 2026-04-28 05:22 | -3.06266 | -59.31096 | 22235 ft | 386 kts | 92° |
| 2026-04-28 05:22 | -3.06359 | -59.28400 | 22795 ft | 389 kts | 92° |
| 2026-04-28 05:22 | -3.06454 | -59.25685 | 23345 ft | 392 kts | 92° |
| 2026-04-28 05:22 | -3.06549 | -59.22948 | 23818 ft | 395 kts | 92° |
| 2026-04-28 05:23 | -3.06645 | -59.20194 | 24255 ft | 398 kts | 92° |
| 2026-04-28 05:23 | -3.06741 | -59.17416 | 24697 ft | 401 kts | 92° |
| 2026-04-28 05:23 | -3.06838 | -59.14617 | 25143 ft | 404 kts | 91° |
| 2026-04-28 05:23 | -3.06936 | -59.11805 | 25580 ft | 406 kts | 91° |
| 2026-04-28 05:24 | -3.07033 | -59.09007 | 26005 ft | 409 kts | 91° |
| 2026-04-28 05:24 | -3.07131 | -59.06159 | 26423 ft | 411 kts | 91° |
| 2026-04-28 05:24 | -3.07231 | -59.03289 | 26837 ft | 414 kts | 91° |
| 2026-04-28 05:24 | -3.07330 | -59.00402 | 27216 ft | 417 kts | 91° |
| 2026-04-28 05:25 | -3.07431 | -58.97500 | 27618 ft | 419 kts | 91° |
| 2026-04-28 05:25 | -3.07531 | -58.94575 | 28002 ft | 422 kts | 91° |
| 2026-04-28 05:25 | -3.07633 | -58.91636 | 28382 ft | 424 kts | 91° |
| 2026-04-28 05:25 | -3.07735 | -58.88679 | 28755 ft | 427 kts | 91° |
| 2026-04-28 05:26 | -3.07837 | -58.85705 | 29124 ft | 429 kts | 91° |
| 2026-04-28 05:26 | -3.07940 | -58.82713 | 29488 ft | 432 kts | 91° |
| 2026-04-28 05:26 | -3.08043 | -58.79706 | 29846 ft | 434 kts | 91° |
| 2026-04-28 05:26 | -3.08147 | -58.76676 | 30158 ft | 437 kts | 91° |
| 2026-04-28 05:27 | -3.08252 | -58.73634 | 30432 ft | 439 kts | 91° |
| 2026-04-28 05:27 | -3.08357 | -58.70570 | 30707 ft | 442 kts | 91° |
| 2026-04-28 05:27 | -3.08463 | -58.67490 | 30988 ft | 444 kts | 91° |
| 2026-04-28 05:27 | -3.08569 | -58.64389 | 31264 ft | 447 kts | 91° |
| 2026-04-28 05:28 | -3.08675 | -58.61279 | 31570 ft | 448 kts | 91° |
| 2026-04-28 05:28 | -3.08782 | -58.58162 | 31955 ft | 448 kts | 91° |
| 2026-04-28 05:28 | -3.08888 | -58.55051 | 32342 ft | 447 kts | 91° |
| 2026-04-28 05:28 | -3.08994 | -58.51942 | 32716 ft | 447 kts | 91° |
| 2026-04-28 05:29 | -3.09100 | -58.48839 | 33072 ft | 447 kts | 92° |
| 2026-04-28 05:29 | -3.09206 | -58.45732 | 33391 ft | 447 kts | 92° |
| 2026-04-28 05:29 | -3.09311 | -58.42622 | 33706 ft | 448 kts | 92° |
| 2026-04-28 05:29 | -3.09417 | -58.39505 | 34033 ft | 448 kts | 91° |
| 2026-04-28 05:30 | -3.09348 | -58.36393 | 34331 ft | 447 kts | 84° |
| 2026-04-28 05:30 | -3.08819 | -58.33331 | 34637 ft | 447 kts | 77° |
| 2026-04-28 05:30 | -3.08102 | -58.30309 | 34944 ft | 446 kts | 76° |
| 2026-04-28 05:30 | -3.07354 | -58.27299 | 35241 ft | 446 kts | 76° |
| 2026-04-28 05:31 | -3.06604 | -58.24290 | 35534 ft | 445 kts | 76° |
| 2026-04-28 05:31 | -3.05858 | -58.21284 | 35824 ft | 445 kts | 76° |
| 2026-04-28 05:31 | -3.05115 | -58.18281 | 36086 ft | 445 kts | 76° |
| 2026-04-28 05:31 | -3.04383 | -58.15318 | 36350 ft | 444 kts | 76° |
| 2026-04-28 05:32 | -3.03885 | -58.13297 | 36530 ft | 444 kts | 76° |
| 2026-04-28 05:32 | -3.02895 | -58.09283 | 36872 ft | 444 kts | 76° |
| 2026-04-28 05:32 | -3.01428 | -58.03327 | 36927 ft | 443 kts | 76° |
| 2026-04-28 05:33 | -2.99953 | -57.97339 | 36928 ft | 443 kts | 76° |
| 2026-04-28 05:33 | -2.98479 | -57.91359 | 36925 ft | 443 kts | 76° |
| 2026-04-28 05:34 | -2.97004 | -57.85376 | 36926 ft | 443 kts | 76° |
| 2026-04-28 05:34 | -2.95521 | -57.79360 | 36927 ft | 443 kts | 76° |
| 2026-04-28 05:35 | -2.94057 | -57.73420 | 36928 ft | 443 kts | 76° |
| 2026-04-28 05:35 | -2.92582 | -57.67441 | 36927 ft | 443 kts | 76° |
| 2026-04-28 05:36 | -2.91108 | -57.61467 | 36924 ft | 442 kts | 76° |
| 2026-04-28 05:36 | -2.89637 | -57.55506 | 36923 ft | 441 kts | 76° |
| 2026-04-28 05:37 | -2.88165 | -57.49542 | 36925 ft | 441 kts | 76° |
| 2026-04-28 05:37 | -2.86693 | -57.43583 | 36927 ft | 442 kts | 76° |
| 2026-04-28 05:38 | -2.85221 | -57.37619 | 36929 ft | 441 kts | 76° |
| 2026-04-28 05:38 | -2.83748 | -57.31656 | 36922 ft | 441 kts | 76° |
| 2026-04-28 05:39 | -2.82276 | -57.25699 | 36923 ft | 441 kts | 76° |
| 2026-04-28 05:39 | -2.80803 | -57.19737 | 36923 ft | 441 kts | 76° |
| 2026-04-28 05:40 | -2.79330 | -57.13782 | 36919 ft | 441 kts | 76° |
| 2026-04-28 05:40 | -2.78106 | -57.08829 | 36919 ft | 441 kts | 76° |
| 2026-04-28 05:41 | -2.76635 | -57.02879 | 36923 ft | 441 kts | 76° |
| 2026-04-28 05:41 | -2.75163 | -56.96928 | 36921 ft | 441 kts | 76° |
| 2026-04-28 05:42 | -2.73691 | -56.90980 | 36924 ft | 441 kts | 76° |
| 2026-04-28 05:42 | -2.72220 | -56.85033 | 36923 ft | 441 kts | 76° |
| 2026-04-28 05:43 | -2.70746 | -56.79081 | 36924 ft | 440 kts | 76° |
| 2026-04-28 05:43 | -2.69275 | -56.73138 | 36924 ft | 440 kts | 76° |
| 2026-04-28 05:44 | -2.67804 | -56.67197 | 36926 ft | 440 kts | 76° |
| 2026-04-28 05:44 | -2.66333 | -56.61258 | 36924 ft | 440 kts | 76° |
| 2026-04-28 05:45 | -2.64861 | -56.55316 | 36922 ft | 440 kts | 76° |
| 2026-04-28 05:45 | -2.63391 | -56.49383 | 36923 ft | 439 kts | 76° |
| 2026-04-28 05:46 | -2.61942 | -56.43447 | 36921 ft | 439 kts | 79° |
| 2026-04-28 05:46 | -2.61039 | -56.37411 | 36930 ft | 439 kts | 83° |
| 2026-04-28 05:47 | -2.60361 | -56.31342 | 36926 ft | 439 kts | 84° |
| 2026-04-28 05:47 | -2.59706 | -56.25278 | 36924 ft | 439 kts | 84° |
| 2026-04-28 05:48 | -2.59028 | -56.19217 | 36925 ft | 439 kts | 84° |
| 2026-04-28 05:48 | -2.58334 | -56.13155 | 36926 ft | 438 kts | 83° |
| 2026-04-28 05:49 | -2.57637 | -56.07097 | 36929 ft | 438 kts | 83° |
| 2026-04-28 05:49 | -2.56923 | -56.01084 | 36929 ft | 438 kts | 82° |
| 2026-04-28 05:50 | -2.56192 | -55.95029 | 36926 ft | 438 kts | 83° |
| 2026-04-28 05:50 | -2.55481 | -55.88977 | 36926 ft | 438 kts | 83° |
| 2026-04-28 05:51 | -2.54807 | -55.82915 | 36929 ft | 438 kts | 84° |
| 2026-04-28 05:51 | -2.54145 | -55.76859 | 36928 ft | 438 kts | 84° |
| 2026-04-28 05:52 | -2.53441 | -55.70810 | 36926 ft | 438 kts | 83° |
| 2026-04-28 05:52 | -2.52728 | -55.64769 | 36924 ft | 437 kts | 83° |
| 2026-04-28 05:53 | -2.52032 | -55.58723 | 36929 ft | 437 kts | 83° |
| 2026-04-28 05:53 | -2.51355 | -55.52679 | 36919 ft | 437 kts | 84° |
| 2026-04-28 05:54 | -2.50672 | -55.46643 | 36923 ft | 437 kts | 84° |
| 2026-04-28 05:54 | -2.49980 | -55.40610 | 36923 ft | 437 kts | 84° |
| 2026-04-28 05:55 | -2.49223 | -55.34586 | 36924 ft | 437 kts | 82° |
| 2026-04-28 05:55 | -2.48386 | -55.28574 | 36923 ft | 437 kts | 82° |
| 2026-04-28 05:56 | -2.47541 | -55.22564 | 36922 ft | 437 kts | 82° |
| 2026-04-28 05:56 | -2.46704 | -55.16547 | 36922 ft | 437 kts | 82° |
| 2026-04-28 05:57 | -2.45872 | -55.10524 | 36925 ft | 437 kts | 82° |
| 2026-04-28 05:57 | -2.45040 | -55.04499 | 36939 ft | 437 kts | 82° |
| 2026-04-28 05:58 | -2.44209 | -54.98477 | 36951 ft | 437 kts | 82° |
| 2026-04-28 05:58 | -2.43378 | -54.92460 | 36959 ft | 437 kts | 82° |
| 2026-04-28 05:59 | -2.42547 | -54.86447 | 36964 ft | 437 kts | 82° |
| 2026-04-28 05:59 | -2.41716 | -54.80435 | 36966 ft | 436 kts | 82° |
| 2026-04-28 06:00 | -2.40884 | -54.74426 | 36967 ft | 436 kts | 83° |
| 2026-04-28 06:00 | -2.40053 | -54.68416 | 36963 ft | 436 kts | 83° |
| 2026-04-28 06:01 | -2.39228 | -54.62451 | 36954 ft | 436 kts | 83° |
| 2026-04-28 06:01 | -2.38391 | -54.56405 | 36945 ft | 436 kts | 83° |
| 2026-04-28 06:02 | -2.37551 | -54.50398 | 36935 ft | 436 kts | 82° |
| 2026-04-28 06:02 | -2.36607 | -54.44408 | 36926 ft | 436 kts | 81° |
| 2026-04-28 06:03 | -2.35623 | -54.38458 | 36925 ft | 436 kts | 81° |
| 2026-04-28 06:03 | -2.34624 | -54.32474 | 36924 ft | 436 kts | 80° |
| 2026-04-28 06:04 | -2.33611 | -54.26492 | 36924 ft | 436 kts | 80° |
| 2026-04-28 06:04 | -2.32616 | -54.20506 | 36925 ft | 436 kts | 81° |
| 2026-04-28 06:05 | -2.31639 | -54.14526 | 36928 ft | 436 kts | 81° |
| 2026-04-28 06:05 | -2.30668 | -54.08549 | 36928 ft | 435 kts | 81° |
| 2026-04-28 06:06 | -2.29698 | -54.02572 | 36931 ft | 436 kts | 81° |
| 2026-04-28 06:06 | -2.28727 | -53.96595 | 36929 ft | 436 kts | 81° |
| 2026-04-28 06:07 | -2.27755 | -53.90611 | 36931 ft | 436 kts | 81° |
| 2026-04-28 06:07 | -2.26813 | -53.84628 | 36931 ft | 436 kts | 81° |
| 2026-04-28 06:08 | -2.25833 | -53.78649 | 36931 ft | 436 kts | 80° |
| 2026-04-28 06:08 | -2.24844 | -53.72676 | 36930 ft | 436 kts | 80° |
| 2026-04-28 06:09 | -2.23868 | -53.66702 | 36930 ft | 435 kts | 81° |
| 2026-04-28 06:09 | -2.22903 | -53.60737 | 36931 ft | 435 kts | 81° |
| 2026-04-28 06:10 | -2.21939 | -53.54776 | 36933 ft | 434 kts | 81° |
| 2026-04-28 06:10 | -2.20977 | -53.48850 | 36933 ft | 434 kts | 81° |
| 2026-04-28 06:11 | -2.20004 | -53.42850 | 36931 ft | 435 kts | 81° |
| 2026-04-28 06:11 | -2.19044 | -53.36925 | 36931 ft | 434 kts | 81° |
| 2026-04-28 06:12 | -2.18075 | -53.30962 | 36930 ft | 434 kts | 81° |
| 2026-04-28 06:12 | -2.17097 | -53.25002 | 36929 ft | 434 kts | 81° |
| 2026-04-28 06:13 | -2.16119 | -53.19043 | 36930 ft | 434 kts | 81° |
| 2026-04-28 06:13 | -2.15143 | -53.13086 | 36930 ft | 434 kts | 81° |
| 2026-04-28 06:14 | -2.14168 | -53.07126 | 36930 ft | 434 kts | 81° |
| 2026-04-28 06:14 | -2.13196 | -53.01164 | 36934 ft | 435 kts | 81° |
| 2026-04-28 06:15 | -2.12222 | -52.95183 | 36933 ft | 437 kts | 81° |
| 2026-04-28 06:15 | -2.11246 | -52.89189 | 36932 ft | 437 kts | 81° |
| 2026-04-28 06:16 | -2.10268 | -52.83190 | 36933 ft | 437 kts | 80° |
| 2026-04-28 06:16 | -2.09288 | -52.77199 | 36933 ft | 437 kts | 80° |
| 2026-04-28 06:17 | -2.08318 | -52.71248 | 36933 ft | 436 kts | 80° |
| 2026-04-28 06:18 | -2.06860 | -52.62246 | 36933 ft | 435 kts | 80° |
| 2026-04-28 06:18 | -2.05900 | -52.56315 | 36931 ft | 435 kts | 80° |
| 2026-04-28 06:19 | -2.04932 | -52.50341 | 36934 ft | 435 kts | 80° |
| 2026-04-28 06:19 | -2.03967 | -52.44374 | 36933 ft | 435 kts | 80° |
| 2026-04-28 06:20 | -2.02997 | -52.38404 | 36930 ft | 435 kts | 80° |
| 2026-04-28 06:20 | -2.02020 | -52.32437 | 36930 ft | 435 kts | 80° |
| 2026-04-28 06:21 | -2.01040 | -52.26471 | 36933 ft | 435 kts | 80° |
| 2026-04-28 06:21 | -2.00058 | -52.20493 | 36933 ft | 437 kts | 80° |
| 2026-04-28 06:22 | -1.99073 | -52.14500 | 36932 ft | 437 kts | 80° |
| 2026-04-28 06:22 | -1.98088 | -52.08510 | 36934 ft | 437 kts | 80° |
| 2026-04-28 06:23 | -1.97103 | -52.02522 | 36934 ft | 437 kts | 81° |
| 2026-04-28 06:23 | -1.96118 | -51.96536 | 36934 ft | 436 kts | 81° |
| 2026-04-28 06:24 | -1.95133 | -51.90550 | 36934 ft | 436 kts | 81° |
| 2026-04-28 06:24 | -1.94147 | -51.84565 | 36933 ft | 436 kts | 81° |
| 2026-04-28 06:25 | -1.93163 | -51.78580 | 36930 ft | 437 kts | 81° |
| 2026-04-28 06:25 | -1.92178 | -51.72583 | 36929 ft | 438 kts | 81° |
| 2026-04-28 06:26 | -1.91189 | -51.66575 | 36932 ft | 438 kts | 81° |
| 2026-04-28 06:26 | -1.90201 | -51.60572 | 36930 ft | 438 kts | 81° |
| 2026-04-28 06:27 | -1.89211 | -51.54565 | 36933 ft | 438 kts | 80° |
| 2026-04-28 06:27 | -1.88222 | -51.48563 | 36934 ft | 438 kts | 80° |
| 2026-04-28 06:28 | -1.87232 | -51.42557 | 36928 ft | 438 kts | 81° |
| 2026-04-28 06:28 | -1.86249 | -51.36595 | 36931 ft | 438 kts | 80° |
| 2026-04-28 06:29 | -1.85260 | -51.30599 | 36932 ft | 437 kts | 80° |
| 2026-04-28 06:29 | -1.84271 | -51.24608 | 36933 ft | 436 kts | 80° |
| 2026-04-28 06:30 | -1.83285 | -51.18628 | 36931 ft | 436 kts | 80° |
| 2026-04-28 06:30 | -1.82298 | -51.12648 | 36933 ft | 436 kts | 80° |
| 2026-04-28 06:31 | -1.81312 | -51.06671 | 36933 ft | 436 kts | 80° |
| 2026-04-28 06:31 | -1.80324 | -51.00689 | 36930 ft | 436 kts | 80° |
| 2026-04-28 06:32 | -1.79826 | -50.95683 | 36934 ft | 436 kts | 87° |
| 2026-04-28 06:32 | -1.79621 | -50.89630 | 36934 ft | 436 kts | 88° |
| 2026-04-28 06:33 | -1.79432 | -50.83541 | 36927 ft | 435 kts | 88° |
| 2026-04-28 06:33 | -1.79242 | -50.77545 | 36930 ft | 434 kts | 88° |
| 2026-04-28 06:34 | -1.79048 | -50.71519 | 36935 ft | 434 kts | 88° |
| 2026-04-28 06:34 | -1.78853 | -50.65489 | 36933 ft | 434 kts | 88° |
| 2026-04-28 06:35 | -1.78658 | -50.59461 | 36931 ft | 433 kts | 88° |
| 2026-04-28 06:35 | -1.78463 | -50.53450 | 36887 ft | 433 kts | 88° |
| 2026-04-28 06:35 | -1.78365 | -50.50449 | 36642 ft | 432 kts | 88° |
| 2026-04-28 06:36 | -1.78268 | -50.47447 | 36400 ft | 432 kts | 88° |
| 2026-04-28 06:36 | -1.78170 | -50.44443 | 36155 ft | 433 kts | 88° |
| 2026-04-28 06:36 | -1.78072 | -50.41437 | 35910 ft | 433 kts | 88° |
| 2026-04-28 06:36 | -1.77974 | -50.38429 | 35662 ft | 433 kts | 88° |
| 2026-04-28 06:37 | -1.77877 | -50.35424 | 35421 ft | 433 kts | 88° |
| 2026-04-28 06:37 | -1.77779 | -50.32419 | 35197 ft | 433 kts | 88° |
| 2026-04-28 06:37 | -1.77680 | -50.29410 | 34966 ft | 433 kts | 88° |
| 2026-04-28 06:37 | -1.77582 | -50.26401 | 34734 ft | 433 kts | 87° |
| 2026-04-28 06:38 | -1.77484 | -50.23395 | 34506 ft | 433 kts | 87° |
| 2026-04-28 06:38 | -1.77386 | -50.20395 | 34038 ft | 431 kts | 87° |
| 2026-04-28 06:38 | -1.77287 | -50.17392 | 33314 ft | 434 kts | 87° |
| 2026-04-28 06:38 | -1.77189 | -50.14389 | 32826 ft | 430 kts | 87° |
| 2026-04-28 06:39 | -1.77073 | -50.11422 | 32330 ft | 425 kts | 85° |
| 2026-04-28 06:39 | -1.76764 | -50.08500 | 31837 ft | 421 kts | 82° |
| 2026-04-28 06:39 | -1.76388 | -50.05653 | 31333 ft | 418 kts | 82° |
| 2026-04-28 06:39 | -1.75996 | -50.02784 | 30834 ft | 415 kts | 81° |
| 2026-04-28 06:40 | -1.75606 | -49.99936 | 30336 ft | 411 kts | 81° |
| 2026-04-28 06:40 | -1.75224 | -49.97133 | 29795 ft | 403 kts | 82° |
| 2026-04-28 06:40 | -1.74849 | -49.94373 | 29256 ft | 399 kts | 82° |
| 2026-04-28 06:40 | -1.74478 | -49.91633 | 28753 ft | 396 kts | 82° |
| 2026-04-28 06:41 | -1.74116 | -49.88915 | 28253 ft | 393 kts | 82° |
| 2026-04-28 06:41 | -1.73757 | -49.86215 | 27753 ft | 391 kts | 82° |
| 2026-04-28 06:41 | -1.73397 | -49.83533 | 27242 ft | 388 kts | 82° |
| 2026-04-28 06:41 | -1.73038 | -49.80868 | 26761 ft | 386 kts | 82° |
| 2026-04-28 06:42 | -1.72679 | -49.78211 | 26262 ft | 385 kts | 82° |
| 2026-04-28 06:42 | -1.72321 | -49.75565 | 25756 ft | 384 kts | 82° |
| 2026-04-28 06:42 | -1.71964 | -49.72928 | 25256 ft | 383 kts | 82° |
| 2026-04-28 06:42 | -1.71608 | -49.70299 | 24760 ft | 379 kts | 82° |
| 2026-04-28 06:43 | -1.71255 | -49.67700 | 24258 ft | 377 kts | 82° |
| 2026-04-28 06:43 | -1.70904 | -49.65102 | 23758 ft | 377 kts | 82° |
| 2026-04-28 06:43 | -1.70551 | -49.62504 | 23193 ft | 377 kts | 82° |
| 2026-04-28 06:43 | -1.70202 | -49.59926 | 22650 ft | 372 kts | 82° |
| 2026-04-28 06:44 | -1.69856 | -49.57373 | 22155 ft | 369 kts | 82° |
| 2026-04-28 06:44 | -1.69513 | -49.54842 | 21654 ft | 367 kts | 82° |
| 2026-04-28 06:44 | -1.69171 | -49.52319 | 21154 ft | 365 kts | 82° |
| 2026-04-28 06:44 | -1.68832 | -49.49817 | 20659 ft | 362 kts | 82° |
| 2026-04-28 06:45 | -1.68495 | -49.47328 | 20162 ft | 361 kts | 83° |
| 2026-04-28 06:45 | -1.68161 | -49.44850 | 19662 ft | 359 kts | 83° |
| 2026-04-28 06:45 | -1.67826 | -49.42385 | 19171 ft | 357 kts | 83° |
| 2026-04-28 06:45 | -1.67492 | -49.39932 | 18674 ft | 356 kts | 83° |
| 2026-04-28 06:46 | -1.67159 | -49.37487 | 18188 ft | 355 kts | 83° |
| 2026-04-28 06:46 | -1.66827 | -49.35049 | 17637 ft | 353 kts | 83° |
| 2026-04-28 06:46 | -1.66498 | -49.32634 | 17142 ft | 349 kts | 83° |
| 2026-04-28 06:46 | -1.66171 | -49.30237 | 16645 ft | 346 kts | 82° |
| 2026-04-28 06:47 | -1.65847 | -49.27864 | 16159 ft | 344 kts | 82° |
| 2026-04-28 06:47 | -1.65525 | -49.25506 | 15674 ft | 341 kts | 82° |
| 2026-04-28 06:47 | -1.65206 | -49.23166 | 15191 ft | 339 kts | 82° |
| 2026-04-28 06:47 | -1.64893 | -49.20873 | 14718 ft | 336 kts | 82° |
| 2026-04-28 06:48 | -1.64578 | -49.18564 | 14238 ft | 334 kts | 82° |
| 2026-04-28 06:48 | -1.64266 | -49.16271 | 13769 ft | 332 kts | 82° |
| 2026-04-28 06:48 | -1.63955 | -49.13989 | 13250 ft | 330 kts | 82° |
| 2026-04-28 06:48 | -1.63647 | -49.11729 | 12777 ft | 327 kts | 82° |
| 2026-04-28 06:49 | -1.63341 | -49.09492 | 12310 ft | 323 kts | 82° |
| 2026-04-28 06:49 | -1.63039 | -49.07278 | 11863 ft | 320 kts | 82° |
| 2026-04-28 06:49 | -1.62739 | -49.05087 | 11395 ft | 317 kts | 83° |
| 2026-04-28 06:49 | -1.62436 | -49.02872 | 10576 ft | 327 kts | 83° |
| 2026-04-28 06:50 | -1.62123 | -49.00579 | 9639 ft | 339 kts | 83° |
| 2026-04-28 06:50 | -1.61799 | -48.98205 | 8568 ft | 350 kts | 83° |
| 2026-04-28 06:50 | -1.61467 | -48.95774 | 7819 ft | 351 kts | 83° |
| 2026-04-28 06:50 | -1.61144 | -48.93416 | 7572 ft | 334 kts | 82° |
| 2026-04-28 06:51 | -1.60836 | -48.91172 | 7344 ft | 318 kts | 82° |
| 2026-04-28 06:51 | -1.60542 | -48.89027 | 7118 ft | 305 kts | 82° |
| 2026-04-28 06:51 | -1.60261 | -48.86970 | 6891 ft | 293 kts | 82° |
| 2026-04-28 06:51 | -1.59990 | -48.84990 | 6668 ft | 282 kts | 82° |
| 2026-04-28 06:52 | -1.59728 | -48.83075 | 6437 ft | 275 kts | 82° |
| 2026-04-28 06:52 | -1.59471 | -48.81194 | 6206 ft | 273 kts | 82° |
| 2026-04-28 06:52 | -1.59219 | -48.79352 | 5951 ft | 261 kts | 82° |
| 2026-04-28 06:52 | -1.58980 | -48.77603 | 5713 ft | 247 kts | 82° |
| 2026-04-28 06:53 | -1.58753 | -48.75938 | 5439 ft | 238 kts | 82° |
| 2026-04-28 06:53 | -1.58525 | -48.74276 | 4732 ft | 247 kts | 82° |
| 2026-04-28 06:53 | -1.58294 | -48.72586 | 4421 ft | 238 kts | 82° |
| 2026-04-28 06:53 | -1.58081 | -48.71041 | 4499 ft | 210 kts | 82° |
| 2026-04-28 06:54 | -1.57889 | -48.69672 | 4519 ft | 193 kts | 82° |
| 2026-04-28 06:54 | -1.57658 | -48.68408 | 4483 ft | 176 kts | 74° |
| 2026-04-28 06:54 | -1.57213 | -48.67327 | 4409 ft | 162 kts | 59° |
| 2026-04-28 06:54 | -1.56559 | -48.66461 | 4262 ft | 152 kts | 48° |
| 2026-04-28 06:55 | -1.55833 | -48.65722 | 3969 ft | 148 kts | 45° |
| 2026-04-28 06:55 | -1.55117 | -48.65015 | 3697 ft | 142 kts | 46° |
| 2026-04-28 06:55 | -1.54422 | -48.64313 | 3410 ft | 142 kts | 46° |
| 2026-04-28 06:55 | -1.53725 | -48.63616 | 3129 ft | 141 kts | 46° |
| 2026-04-28 06:56 | -1.53029 | -48.62922 | 2850 ft | 141 kts | 46° |
| 2026-04-28 06:56 | -1.52341 | -48.62233 | 2712 ft | 140 kts | 46° |
| 2026-04-28 06:56 | -1.51655 | -48.61540 | 2704 ft | 140 kts | 46° |
| 2026-04-28 06:56 | -1.50968 | -48.60844 | 2700 ft | 140 kts | 46° |
| 2026-04-28 06:57 | -1.50285 | -48.60150 | 2700 ft | 140 kts | 46° |
| 2026-04-28 06:57 | -1.49601 | -48.59454 | 2704 ft | 140 kts | 46° |
| 2026-04-28 06:57 | -1.48917 | -48.58757 | 2665 ft | 142 kts | 46° |
| 2026-04-28 06:57 | -1.48201 | -48.58030 | 2240 ft | 149 kts | 46° |
| 2026-04-28 06:58 | -1.47498 | -48.57317 | 1944 ft | 143 kts | 46° |
| 2026-04-28 06:58 | -1.46817 | -48.56628 | 1727 ft | 136 kts | 46° |
| 2026-04-28 06:58 | -1.46152 | -48.55953 | 1697 ft | 137 kts | 46° |
| 2026-04-28 06:58 | -1.45481 | -48.55273 | 1700 ft | 140 kts | 46° |
| 2026-04-28 06:59 | -1.44792 | -48.54571 | 1679 ft | 143 kts | 46° |
| 2026-04-28 06:59 | -1.44095 | -48.53865 | 1519 ft | 143 kts | 46° |
| 2026-04-28 06:59 | -1.43398 | -48.53159 | 1322 ft | 142 kts | 46° |
| 2026-04-28 06:59 | -1.42704 | -48.52456 | 1134 ft | 142 kts | 46° |
| 2026-04-28 07:00 | -1.42011 | -48.51753 | 953 ft | 142 kts | 46° |
| 2026-04-28 07:00 | -1.41319 | -48.51051 | 767 ft | 141 kts | 46° |
| 2026-04-28 07:00 | -1.40630 | -48.50352 | 593 ft | 141 kts | 46° |
| 2026-04-28 07:00 | -1.39940 | -48.49652 | 412 ft | 141 kts | 46° |
| 2026-04-28 07:01 | -1.39252 | -48.48954 | 225 ft | 141 kts | 47° |
| 2026-04-28 07:01 | -1.38566 | -48.48259 | 52 ft | 137 kts | 45° |
| 2026-04-28 07:01 | -1.37993 | -48.47680 | 51 ft | 82 kts | 45° |
| 2026-04-28 07:01 | -1.37667 | -48.47346 | 53 ft | 50 kts | 43° |
| 2026-04-28 07:02 | -1.37447 | -48.47149 | 57 ft | 26 kts | 40° |
| 2026-04-28 07:02 | -1.37329 | -48.47037 | 57 ft | 20 kts | 40° |
| 2026-04-28 07:02 | -1.37225 | -48.46953 | 58 ft | 16 kts | 12° |
| 2026-04-28 07:02 | -1.37208 | -48.46925 | 59 ft | 3 kts | 144° |
| 2026-04-28 07:03 | -1.37253 | -48.46940 | 58 ft | 10 kts | 221° |
| 2026-04-28 07:03 | -1.37300 | -48.46986 | 53 ft | 10 kts | 225° |
| 2026-04-28 07:03 | -1.37352 | -48.47037 | 55 ft | 13 kts | 225° |
| 2026-04-28 07:03 | -1.37435 | -48.47121 | 55 ft | 19 kts | 225° |
| 2026-04-28 07:04 | -1.37531 | -48.47218 | 56 ft | 20 kts | 225° |
| 2026-04-28 07:04 | -1.37639 | -48.47325 | 51 ft | 23 kts | 225° |
| 2026-04-28 07:04 | -1.37753 | -48.47439 | 52 ft | 23 kts | 225° |
| 2026-04-28 07:04 | -1.37871 | -48.47551 | 51 ft | 23 kts | 225° |
| 2026-04-28 07:05 | -1.37986 | -48.47669 | 51 ft | 23 kts | 226° |
| 2026-04-28 07:05 | -1.38081 | -48.47768 | 52 ft | 17 kts | 226° |
| 2026-04-28 07:05 | -1.38165 | -48.47854 | 52 ft | 17 kts | 226° |
| 2026-04-28 07:05 | -1.38254 | -48.47938 | 51 ft | 18 kts | 222° |
| 2026-04-28 07:06 | -1.38346 | -48.48023 | 52 ft | 18 kts | 228° |
| 2026-04-28 07:06 | -1.38439 | -48.48121 | 50 ft | 20 kts | 226° |
| 2026-04-28 07:06 | -1.38541 | -48.48223 | 49 ft | 21 kts | 222° |
| 2026-04-28 07:06 | -1.38629 | -48.48292 | 48 ft | 14 kts | 179° |
| 2026-04-28 07:07 | -1.38661 | -48.48229 | 50 ft | 10 kts | 108° |
| 2026-04-28 07:07 | -1.38675 | -48.48168 | 51 ft | 9 kts | 95° |
| 2026-04-28 07:07 | -1.38676 | -48.48111 | 52 ft | 8 kts | 86° |
| 2026-04-28 07:07 | -1.38680 | -48.48063 | 53 ft | 5 kts | 129° |
| 2026-04-28 07:08 | -1.38710 | -48.48053 | 53 ft | 4 kts | 178° |
| 2026-04-28 07:08 | -1.38718 | -48.48053 | 53 ft | 0 kts | 179° |